Terminal Aerodrome Forecast
Issued by NWS Tulsa, OK

Home | Current Version | Previous Version | Text Only | Print | Product List | Glossary On
Versions: 1 2 3 4 5 6 7 8 9 10 11 12 13 14
113
FTUS44 KTSA 181122
TAFFSM
TAF
KFSM 181122Z 1812/1912 06004KT P6SM SCT250
     FM181800 17006KT P6SM SCT250
     FM190300 08002KT P6SM SCT250=

USA.gov is the U.S. government's official web portal to all federal, state and local government web resources and services.